createdAt,value
2023-03-18T00:01:12.719Z,1.59
2023-03-18T00:03:41.239Z,1.09
2023-03-18T00:06:18.998Z,0.66
2023-03-18T00:08:49.295Z,0.42
2023-03-18T00:11:19.173Z,0.89
2023-03-18T00:13:49.493Z,0.26
2023-03-18T00:16:17.732Z,0.34
2023-03-18T00:18:45.868Z,0.29
2023-03-18T00:21:14.478Z,-0.10
2023-03-18T00:23:43.232Z,0.16
2023-03-18T00:26:12.199Z,0.09
2023-03-18T00:28:42.328Z,0.41
2023-03-18T00:31:11.860Z,0.69
2023-03-18T00:33:46.233Z,0.57
2023-03-18T00:36:15.406Z,0.36
2023-03-18T00:38:46.161Z,0.41
2023-03-18T00:41:16.473Z,0.26
2023-03-18T00:43:49.941Z,0.27
2023-03-18T00:46:20.484Z,0.49
2023-03-18T00:48:49.248Z,0.06
2023-03-18T00:51:17.989Z,0.62
2023-03-18T00:53:49.299Z,0.78
2023-03-18T00:56:19.752Z,0.68
2023-03-18T00:58:48.977Z,0.70
2023-03-18T01:01:18.120Z,0.53
2023-03-18T01:03:46.629Z,0.65
2023-03-18T01:06:23.014Z,1.24
2023-03-18T01:08:52.130Z,1.41
2023-03-18T01:11:20.353Z,1.54
2023-03-18T01:13:48.835Z,1.63
2023-03-18T01:16:18.169Z,1.32
2023-03-18T01:18:47.040Z,0.97
2023-03-18T01:21:15.644Z,1.31
2023-03-18T01:23:45.460Z,1.00
2023-03-18T01:26:13.922Z,0.76
2023-03-18T01:28:42.690Z,1.00
2023-03-18T01:31:12.904Z,0.98
2023-03-18T01:33:42.738Z,1.64
2023-03-18T01:36:12.001Z,1.50
2023-03-18T01:38:41.197Z,1.96
2023-03-18T01:41:11.007Z,2.02
2023-03-18T01:43:41.683Z,2.37
2023-03-18T01:46:34.790Z,2.20
2023-03-18T01:49:08.323Z,2.48
2023-03-18T01:51:37.047Z,2.68
2023-03-18T01:54:07.048Z,3.06
2023-03-18T01:56:37.435Z,3.39
2023-03-18T01:59:08.130Z,2.82
2023-03-18T02:01:42.763Z,2.03
2023-03-18T02:04:12.220Z,2.08
2023-03-18T02:06:41.236Z,1.54
2023-03-18T02:09:10.150Z,1.59
2023-03-18T02:11:41.577Z,1.46
2023-03-18T02:14:13.569Z,1.76
2023-03-18T02:16:53.009Z,2.20
2023-03-18T02:19:30.429Z,1.45
2023-03-18T02:22:24.048Z,1.07
2023-03-18T02:24:58.446Z,0.46
2023-03-18T02:27:29.244Z,0.59
2023-03-18T02:30:01.826Z,0.76
2023-03-18T02:32:32.028Z,0.96
2023-03-18T02:35:06.259Z,1.26
2023-03-18T02:37:34.637Z,1.48
2023-03-18T02:40:19.799Z,1.39
2023-03-18T02:42:48.918Z,1.21
2023-03-18T02:45:41.586Z,1.47
2023-03-18T02:48:12.180Z,1.56
2023-03-18T02:50:42.478Z,2.02
2023-03-18T02:53:13.128Z,1.66
2023-03-18T02:55:42.816Z,1.31
2023-03-18T02:58:10.913Z,1.38
2023-03-18T03:00:39.443Z,1.43
2023-03-18T03:03:08.253Z,1.41
2023-03-18T03:05:36.701Z,1.41
2023-03-18T03:08:05.604Z,1.40
2023-03-18T03:10:34.687Z,1.13
2023-03-18T03:13:02.906Z,0.99
2023-03-18T03:15:31.169Z,1.16
2023-03-18T03:18:00.194Z,1.27
2023-03-18T03:20:29.188Z,1.62
2023-03-18T03:22:58.782Z,1.25
2023-03-18T03:25:27.822Z,1.60
2023-03-18T03:27:57.352Z,1.54
2023-03-18T03:30:26.553Z,1.40
2023-03-18T03:32:55.118Z,1.49
2023-03-18T03:35:24.582Z,1.43
2023-03-18T03:37:52.976Z,1.21
2023-03-18T03:40:21.941Z,1.44
2023-03-18T03:42:52.242Z,1.18
2023-03-18T03:45:20.427Z,1.11
2023-03-18T03:47:49.147Z,1.36
2023-03-18T03:50:18.233Z,1.21
2023-03-18T03:52:47.298Z,1.21
2023-03-18T03:55:18.579Z,1.20
2023-03-18T03:57:46.872Z,1.42
2023-03-18T04:00:19.621Z,1.40
2023-03-18T04:02:50.246Z,1.47
2023-03-18T04:05:21.261Z,1.62
2023-03-18T04:07:50.141Z,1.40
2023-03-18T04:10:20.653Z,1.57
2023-03-18T04:12:49.100Z,1.79
2023-03-18T04:15:20.177Z,1.80
2023-03-18T04:17:52.056Z,2.14
2023-03-18T04:20:21.230Z,2.23
2023-03-18T04:22:49.669Z,2.50
2023-03-18T04:25:18.524Z,2.27
2023-03-18T04:27:48.039Z,2.49
2023-03-18T04:30:18.328Z,2.36
2023-03-18T04:32:48.358Z,2.74
2023-03-18T04:35:17.462Z,2.51
2023-03-18T04:37:45.710Z,2.45
2023-03-18T04:40:14.319Z,2.47
2023-03-18T04:42:43.426Z,2.87
2023-03-18T04:45:12.330Z,3.09
2023-03-18T04:47:41.979Z,3.32
2023-03-18T04:50:12.691Z,2.99
2023-03-18T04:52:42.248Z,3.10
2023-03-18T04:55:12.527Z,2.84
2023-03-18T04:57:42.930Z,3.10
2023-03-18T05:00:14.121Z,3.00
2023-03-18T05:02:43.566Z,3.33
2023-03-18T05:05:11.946Z,3.68
2023-03-18T05:07:40.456Z,3.53
2023-03-18T05:10:10.173Z,3.33
2023-03-18T05:12:38.665Z,3.34
2023-03-18T05:15:08.024Z,3.47
2023-03-18T05:17:37.599Z,3.47
2023-03-18T05:20:07.498Z,3.65
2023-03-18T05:22:35.960Z,3.52
2023-03-18T05:25:06.159Z,3.84
2023-03-18T05:27:34.657Z,3.85
2023-03-18T05:30:05.637Z,4.32
2023-03-18T05:32:34.932Z,4.17
2023-03-18T05:35:04.137Z,4.81
2023-03-18T05:37:33.650Z,5.47
2023-03-18T05:40:04.728Z,6.83
2023-03-18T05:42:36.655Z,6.73
2023-03-18T05:45:09.228Z,6.75
2023-03-18T05:47:38.203Z,6.74
2023-03-18T05:50:07.715Z,6.29
2023-03-18T05:52:37.060Z,6.34
2023-03-18T05:55:05.760Z,5.81
2023-03-18T05:57:35.172Z,6.09
2023-03-18T06:00:03.988Z,6.25
2023-03-18T06:02:33.243Z,7.42
2023-03-18T06:05:02.105Z,8.93
2023-03-18T06:07:31.231Z,9.41
2023-03-18T06:09:59.486Z,8.53
2023-03-18T06:12:28.925Z,8.23
2023-03-18T06:14:56.988Z,7.88
2023-03-18T06:17:27.900Z,7.71
2023-03-18T06:19:57.849Z,7.37
2023-03-18T06:22:26.664Z,8.05
2023-03-18T06:24:55.902Z,7.91
2023-03-18T06:27:24.841Z,8.24
2023-03-18T06:29:54.580Z,8.51
2023-03-18T06:32:22.763Z,8.34
2023-03-18T06:34:51.451Z,9.61
2023-03-18T06:37:19.681Z,9.54
2023-03-18T06:39:49.699Z,9.97
2023-03-18T06:42:18.822Z,9.38
2023-03-18T06:44:50.926Z,9.86
2023-03-18T06:47:22.335Z,10.11
2023-03-18T06:49:51.707Z,11.06
2023-03-18T06:52:21.450Z,10.47
2023-03-18T06:54:50.819Z,10.91
2023-03-18T06:57:20.631Z,10.31
2023-03-18T06:59:50.124Z,11.23
2023-03-18T07:02:18.862Z,11.34
2023-03-18T07:04:47.215Z,10.70
2023-03-18T07:07:16.364Z,10.04
2023-03-18T07:09:45.289Z,10.97
2023-03-18T07:12:16.778Z,10.60
2023-03-18T07:14:45.891Z,10.29
2023-03-18T07:17:14.820Z,11.11
2023-03-18T07:19:43.229Z,10.61
2023-03-18T07:22:11.997Z,11.75
2023-03-18T07:24:40.482Z,11.86
2023-03-18T07:27:08.692Z,11.91
2023-03-18T07:29:38.662Z,12.17
2023-03-18T07:32:07.082Z,11.93
2023-03-18T07:34:35.470Z,12.30
2023-03-18T07:37:04.410Z,12.44
2023-03-18T07:39:32.648Z,13.03
2023-03-18T07:42:00.767Z,12.98
2023-03-18T07:44:29.777Z,12.77
2023-03-18T07:46:58.423Z,13.28
2023-03-18T07:49:26.549Z,13.63
2023-03-18T07:51:55.039Z,13.53
2023-03-18T07:54:24.909Z,13.01
2023-03-18T07:56:53.817Z,12.80
2023-03-18T07:59:22.525Z,12.98
2023-03-18T08:01:51.005Z,12.64
2023-03-18T08:04:19.897Z,12.38
2023-03-18T08:06:48.676Z,12.58
2023-03-18T08:09:16.997Z,12.56
2023-03-18T08:11:45.540Z,13.42
2023-03-18T08:14:14.326Z,13.44
2023-03-18T08:16:42.699Z,12.59
2023-03-18T08:19:11.433Z,12.69
2023-03-18T08:21:39.847Z,12.18
2023-03-18T08:24:08.066Z,12.64
2023-03-18T08:26:37.201Z,12.78
2023-03-18T08:29:05.330Z,12.25
2023-03-18T08:31:33.625Z,12.67
2023-03-18T08:34:02.147Z,12.31
2023-03-18T08:36:30.248Z,12.42
2023-03-18T08:38:58.390Z,12.63
2023-03-18T08:41:27.487Z,13.40
2023-03-18T08:43:57.634Z,13.67
2023-03-18T08:46:26.031Z,14.21
2023-03-18T08:48:54.647Z,14.26
2023-03-18T08:51:22.944Z,13.97
2023-03-18T08:53:51.098Z,15.11
2023-03-18T08:56:19.714Z,14.87
2023-03-18T08:58:48.597Z,14.83
2023-03-18T09:01:17.019Z,15.32
2023-03-18T09:03:46.034Z,15.05
2023-03-18T09:06:14.473Z,15.48
2023-03-18T09:08:44.055Z,15.02
2023-03-18T09:11:13.979Z,15.62
2023-03-18T09:13:42.288Z,15.08
2023-03-18T09:16:11.010Z,15.13
2023-03-18T09:18:42.078Z,15.73
2023-03-18T09:21:12.349Z,16.17
2023-03-18T09:23:41.823Z,16.55
2023-03-18T09:26:09.918Z,15.77
2023-03-18T09:28:38.002Z,16.20
2023-03-18T09:31:06.970Z,16.78
2023-03-18T09:33:37.315Z,16.51
2023-03-18T09:36:05.869Z,16.63
2023-03-18T09:38:34.505Z,16.12
2023-03-18T09:41:04.597Z,15.47
2023-03-18T09:43:58.352Z,15.36
2023-03-18T09:46:46.364Z,16.87
2023-03-18T09:49:33.467Z,16.72
2023-03-18T09:52:10.778Z,16.10
2023-03-18T09:54:45.115Z,17.21
2023-03-18T09:57:19.377Z,17.99
2023-03-18T10:00:13.761Z,17.38
2023-03-18T10:03:06.496Z,17.51
2023-03-18T10:05:38.396Z,18.00
2023-03-18T10:08:39.279Z,19.12
2023-03-18T10:11:17.262Z,17.99
2023-03-18T10:13:52.969Z,17.79
2023-03-18T10:16:26.407Z,18.33
2023-03-18T10:18:55.284Z,19.70
2023-03-18T10:21:49.923Z,19.06
2023-03-18T10:24:24.889Z,17.41
2023-03-18T10:27:18.199Z,19.14
2023-03-18T10:29:58.835Z,20.50
2023-03-18T10:32:48.576Z,20.58
2023-03-18T10:35:34.502Z,20.64
2023-03-18T10:38:04.936Z,21.10
2023-03-18T10:40:38.900Z,19.72
2023-03-18T10:43:17.129Z,20.04
2023-03-18T10:45:47.875Z,20.23
2023-03-18T10:48:30.157Z,18.33
2023-03-18T10:51:11.136Z,18.81
2023-03-18T10:53:45.869Z,19.21
2023-03-18T10:56:15.851Z,20.75
2023-03-18T10:58:44.281Z,21.16
2023-03-18T11:01:17.158Z,21.73
2023-03-18T11:03:55.451Z,22.11
2023-03-18T11:06:36.416Z,21.98
2023-03-18T11:09:11.674Z,22.25
2023-03-18T11:11:49.662Z,21.46
2023-03-18T11:14:30.467Z,22.26
2023-03-18T11:17:10.204Z,23.02
2023-03-18T11:19:41.614Z,22.18
2023-03-18T11:22:10.351Z,21.50
2023-03-18T11:24:40.074Z,21.17
2023-03-18T11:27:14.641Z,21.75
2023-03-18T11:29:55.132Z,22.59
2023-03-18T11:32:34.823Z,24.39
2023-03-18T11:35:08.892Z,22.98
2023-03-18T11:37:41.589Z,23.47
2023-03-18T11:40:19.207Z,23.12
2023-03-18T11:42:48.961Z,23.32
2023-03-18T11:45:26.863Z,22.66
2023-03-18T11:47:55.037Z,22.50
2023-03-18T11:50:31.518Z,21.87
2023-03-18T11:53:28.661Z,22.10
2023-03-18T11:56:12.084Z,22.45
2023-03-18T11:58:53.120Z,21.52
2023-03-18T12:01:32.774Z,19.75
2023-03-18T12:04:30.060Z,17.33
2023-03-18T12:07:17.914Z,17.42
2023-03-18T12:10:05.844Z,17.05
2023-03-18T12:12:53.877Z,17.71
2023-03-18T12:15:36.772Z,16.97
2023-03-18T12:18:19.562Z,16.66
2023-03-18T12:20:48.190Z,16.46
2023-03-18T12:23:32.211Z,15.68
2023-03-18T12:26:05.622Z,15.89
2023-03-18T12:28:43.044Z,15.41
2023-03-18T12:31:31.550Z,15.62
2023-03-18T12:34:03.198Z,16.23
2023-03-18T12:36:48.856Z,15.24
2023-03-18T12:39:26.760Z,14.03
2023-03-18T12:42:36.761Z,14.30
2023-03-18T12:45:11.603Z,14.79
2023-03-18T12:47:47.231Z,14.86
2023-03-18T12:50:20.067Z,15.34
2023-03-18T12:53:02.726Z,15.17
2023-03-18T12:55:34.381Z,14.99
2023-03-18T12:58:10.868Z,15.32
2023-03-18T13:01:18.483Z,15.54
2023-03-18T13:03:54.066Z,14.52
2023-03-18T13:06:42.741Z,14.94
2023-03-18T13:09:36.373Z,15.38
2023-03-18T13:12:05.315Z,14.86
2023-03-18T13:14:49.173Z,15.29
2023-03-18T13:17:23.765Z,15.17
2023-03-18T13:19:52.710Z,15.34
2023-03-18T13:23:16.227Z,15.45
2023-03-18T13:26:33.090Z,15.86
2023-03-18T13:29:04.702Z,15.88
2023-03-18T13:31:42.878Z,15.79
2023-03-18T13:34:43.505Z,15.62
2023-03-18T13:37:31.117Z,15.42
2023-03-18T13:40:30.892Z,15.70
2023-03-18T13:43:01.743Z,14.87
2023-03-18T13:45:33.260Z,15.21
2023-03-18T13:48:07.898Z,15.79
2023-03-18T13:50:40.030Z,16.03
2023-03-18T13:53:30.080Z,15.10
2023-03-18T13:55:58.511Z,15.60
2023-03-18T13:58:30.689Z,16.26
2023-03-18T14:01:24.924Z,16.19
2023-03-18T14:03:55.810Z,15.99
2023-03-18T14:06:35.898Z,16.41
2023-03-18T14:09:23.465Z,15.92
2023-03-18T14:11:57.944Z,15.71
2023-03-18T14:14:50.041Z,15.97
2023-03-18T14:17:38.883Z,15.72
2023-03-18T14:20:18.018Z,15.94
2023-03-18T14:22:51.869Z,15.52
2023-03-18T14:25:38.990Z,15.63
2023-03-18T14:28:08.026Z,16.08
2023-03-18T14:30:37.414Z,15.82
2023-03-18T14:33:21.053Z,15.72
2023-03-18T14:36:10.127Z,15.79
2023-03-18T14:38:51.130Z,15.72
2023-03-18T14:41:27.133Z,14.90
2023-03-18T14:44:03.084Z,15.27
2023-03-18T14:46:36.893Z,15.50
2023-03-18T14:49:25.731Z,15.04
2023-03-18T14:51:54.831Z,14.96
2023-03-18T14:54:24.851Z,15.23
2023-03-18T14:56:55.424Z,14.79
2023-03-18T14:59:26.773Z,15.22
2023-03-18T15:01:55.831Z,14.77
2023-03-18T15:04:27.286Z,14.62
2023-03-18T15:06:57.308Z,14.63
2023-03-18T15:09:30.652Z,14.90
2023-03-18T15:11:59.232Z,15.23
2023-03-18T15:14:33.158Z,15.15
2023-03-18T15:17:04.961Z,15.13
2023-03-18T15:19:33.489Z,14.57
2023-03-18T15:22:06.605Z,14.78
2023-03-18T15:24:34.933Z,14.80
2023-03-18T15:27:13.753Z,14.45
2023-03-18T15:29:48.802Z,14.44
2023-03-18T15:32:52.096Z,14.44
2023-03-18T15:35:25.686Z,14.71
2023-03-18T15:38:14.942Z,14.57
2023-03-18T15:40:49.319Z,14.23
2023-03-18T15:43:39.737Z,14.37
2023-03-18T15:46:22.198Z,14.34
2023-03-18T15:48:56.731Z,14.26
2023-03-18T15:51:33.289Z,14.42
2023-03-18T15:54:13.992Z,14.23
2023-03-18T15:56:49.095Z,13.91
2023-03-18T15:59:24.856Z,14.12
2023-03-18T16:01:55.534Z,14.09
2023-03-18T16:04:24.823Z,13.94
2023-03-18T16:06:53.991Z,14.10
2023-03-18T16:09:23.940Z,14.02
2023-03-18T16:12:08.821Z,13.92
2023-03-18T16:14:40.562Z,13.63
2023-03-18T16:17:12.779Z,13.76
2023-03-18T16:19:41.243Z,13.37
2023-03-18T16:22:10.293Z,13.46
2023-03-18T16:24:38.825Z,13.48
2023-03-18T16:27:07.482Z,13.33
2023-03-18T16:29:38.550Z,13.62
2023-03-18T16:32:08.602Z,13.63
2023-03-18T16:34:38.406Z,13.35
2023-03-18T16:37:06.916Z,13.13
2023-03-18T16:39:35.689Z,13.14
2023-03-18T16:42:06.908Z,13.52
2023-03-18T16:44:35.917Z,13.03
2023-03-18T16:47:04.603Z,12.85
2023-03-18T16:49:35.331Z,12.59
2023-03-18T16:52:03.687Z,12.61
2023-03-18T16:54:33.629Z,12.39
2023-03-18T16:57:04.671Z,12.47
2023-03-18T16:59:37.886Z,12.60
2023-03-18T17:02:25.500Z,12.42
2023-03-18T17:04:55.281Z,12.17
2023-03-18T17:07:23.506Z,11.94
2023-03-18T17:09:52.440Z,11.77
2023-03-18T17:12:21.858Z,11.90
2023-03-18T17:14:55.061Z,11.32
2023-03-18T17:17:30.175Z,11.16
2023-03-18T17:19:59.949Z,11.16
2023-03-18T17:22:33.338Z,11.25
2023-03-18T17:25:02.625Z,11.13
2023-03-18T17:27:34.310Z,11.24
2023-03-18T17:30:02.515Z,11.08
2023-03-18T17:32:32.521Z,10.91
2023-03-18T17:35:01.870Z,10.57
2023-03-18T17:37:31.063Z,10.55
2023-03-18T17:39:59.519Z,10.25
2023-03-18T17:42:32.264Z,10.18
2023-03-18T17:45:25.338Z,10.00
2023-03-18T17:47:56.321Z,9.44
2023-03-18T17:50:24.924Z,9.97
2023-03-18T17:52:53.310Z,9.75
2023-03-18T17:55:24.202Z,9.73
2023-03-18T17:57:52.991Z,9.90
2023-03-18T18:00:29.351Z,10.27
2023-03-18T18:03:00.483Z,10.59
2023-03-18T18:05:30.049Z,10.43
2023-03-18T18:07:58.651Z,10.44
2023-03-18T18:10:27.284Z,10.45
2023-03-18T18:12:55.527Z,11.00
2023-03-18T18:15:26.945Z,10.66
2023-03-18T18:17:55.197Z,10.79
2023-03-18T18:20:24.494Z,10.96
2023-03-18T18:22:55.332Z,10.92
2023-03-18T18:25:29.941Z,10.50
2023-03-18T18:27:58.100Z,10.30
2023-03-18T18:30:27.595Z,10.19
2023-03-18T18:32:56.008Z,10.75
2023-03-18T18:35:25.901Z,10.62
2023-03-18T18:37:54.739Z,10.33
2023-03-18T18:40:23.294Z,10.26
2023-03-18T18:42:51.442Z,9.99
2023-03-18T18:45:21.210Z,10.04
2023-03-18T18:47:49.466Z,10.10
2023-03-18T18:50:19.968Z,9.74
2023-03-18T18:52:48.545Z,9.15
2023-03-18T18:55:17.052Z,9.22
2023-03-18T18:57:46.031Z,9.79
2023-03-18T19:00:22.781Z,9.75
2023-03-18T19:02:56.527Z,9.92
2023-03-18T19:05:25.291Z,9.64
2023-03-18T19:07:53.882Z,9.54
2023-03-18T19:10:26.823Z,9.13
2023-03-18T19:12:55.075Z,9.66
2023-03-18T19:15:23.576Z,9.52
2023-03-18T19:17:52.083Z,9.07
2023-03-18T19:20:30.166Z,9.62
2023-03-18T19:23:00.141Z,9.61
2023-03-18T19:25:28.745Z,9.89
2023-03-18T19:27:58.470Z,9.93
2023-03-18T19:30:27.414Z,9.26
2023-03-18T19:32:55.714Z,9.15
2023-03-18T19:35:24.035Z,9.23
2023-03-18T19:37:54.380Z,8.94
2023-03-18T19:40:29.515Z,9.37
2023-03-18T19:42:58.863Z,9.04
2023-03-18T19:45:27.579Z,9.07
2023-03-18T19:47:55.789Z,8.72
2023-03-18T19:50:24.371Z,8.74
2023-03-18T19:52:54.419Z,8.97
2023-03-18T19:55:23.688Z,8.59
2023-03-18T19:57:52.582Z,8.80
2023-03-18T20:00:23.821Z,8.90
2023-03-18T20:02:53.551Z,8.56
2023-03-18T20:05:24.506Z,8.23
2023-03-18T20:07:53.514Z,7.98
2023-03-18T20:10:22.112Z,8.69
2023-03-18T20:12:51.233Z,8.25
2023-03-18T20:15:23.251Z,8.08
2023-03-18T20:17:52.206Z,8.56
2023-03-18T20:20:32.407Z,8.59
2023-03-18T20:23:03.158Z,8.50
2023-03-18T20:25:33.364Z,8.32
2023-03-18T20:28:02.443Z,8.53
2023-03-18T20:30:37.470Z,8.48
2023-03-18T20:33:06.259Z,8.60
2023-03-18T20:35:42.349Z,8.43
2023-03-18T20:38:29.202Z,7.99
2023-03-18T20:40:57.978Z,7.75
2023-03-18T20:43:28.606Z,7.71
2023-03-18T20:45:58.249Z,7.74
2023-03-18T20:48:28.173Z,7.50
2023-03-18T20:50:56.514Z,7.27
2023-03-18T20:53:27.640Z,7.52
2023-03-18T20:55:56.397Z,7.87
2023-03-18T20:58:27.673Z,7.74
2023-03-18T21:00:57.031Z,7.79
2023-03-18T21:03:25.253Z,7.86
2023-03-18T21:05:56.478Z,7.87
2023-03-18T21:08:26.927Z,7.76
2023-03-18T21:10:56.188Z,7.91
2023-03-18T21:13:39.381Z,8.19
2023-03-18T21:16:11.892Z,8.25
2023-03-18T21:18:45.741Z,7.47
2023-03-18T21:21:25.640Z,7.49
2023-03-18T21:23:54.581Z,7.78
2023-03-18T21:26:23.700Z,7.46
2023-03-18T21:28:52.815Z,7.65
2023-03-18T21:31:27.356Z,7.38
2023-03-18T21:33:55.926Z,7.34
2023-03-18T21:36:24.591Z,7.08
2023-03-18T21:38:53.039Z,7.47
2023-03-18T21:41:23.961Z,7.25
2023-03-18T21:43:52.525Z,7.67
2023-03-18T21:46:24.855Z,7.07
2023-03-18T21:48:53.783Z,7.22
2023-03-18T21:51:38.161Z,7.38
2023-03-18T21:54:20.106Z,7.29
2023-03-18T21:56:48.233Z,7.34
2023-03-18T21:59:16.774Z,7.45
2023-03-18T22:01:44.923Z,7.30
2023-03-18T22:04:13.498Z,7.25
2023-03-18T22:06:41.786Z,6.74
2023-03-18T22:09:10.190Z,7.28
2023-03-18T22:11:38.727Z,7.13
2023-03-18T22:14:06.816Z,6.90
2023-03-18T22:16:34.889Z,6.99
2023-03-18T22:19:03.360Z,7.32
2023-03-18T22:21:31.656Z,7.28
2023-03-18T22:24:00.857Z,7.35
2023-03-18T22:26:29.315Z,7.45
2023-03-18T22:28:57.475Z,7.38
2023-03-18T22:31:27.004Z,7.45
2023-03-18T22:33:55.647Z,7.11
2023-03-18T22:36:25.684Z,7.05
2023-03-18T22:38:53.799Z,6.76
2023-03-18T22:41:24.496Z,7.32
2023-03-18T22:43:52.644Z,6.83
2023-03-18T22:46:20.763Z,6.56
2023-03-18T22:48:49.382Z,6.56
2023-03-18T22:51:24.112Z,6.13
2023-03-18T22:53:54.395Z,6.28
2023-03-18T22:56:23.200Z,6.21
2023-03-18T22:58:51.702Z,5.96
2023-03-18T23:01:22.172Z,6.01
2023-03-18T23:03:50.771Z,5.88
2023-03-18T23:06:21.346Z,5.86
2023-03-18T23:08:50.011Z,5.85
2023-03-18T23:11:18.379Z,6.00
2023-03-18T23:13:50.421Z,6.12
2023-03-18T23:16:21.847Z,6.17
2023-03-18T23:18:50.840Z,5.86
2023-03-18T23:21:24.427Z,5.48
2023-03-18T23:23:53.522Z,6.22
2023-03-18T23:26:22.007Z,6.39
2023-03-18T23:28:50.165Z,5.69
2023-03-18T23:31:18.774Z,5.85
2023-03-18T23:33:47.512Z,6.38
2023-03-18T23:36:16.074Z,5.67
2023-03-18T23:38:44.434Z,4.97
2023-03-18T23:41:13.020Z,5.74
2023-03-18T23:43:41.030Z,5.79
2023-03-18T23:46:09.615Z,6.07
2023-03-18T23:48:38.155Z,5.60
2023-03-18T23:51:06.710Z,5.34
2023-03-18T23:53:34.800Z,5.05
2023-03-18T23:56:03.465Z,4.58
2023-03-18T23:58:31.554Z,4.48
